sensor_id;sensor_type;location;lat;lon;timestamp;P1;durP1;ratioP1;P2;durP2;ratioP2
52188;SDS011;38162;45.926;13.608;2022-11-15T07:32:40;13.70;;;9.63;;
52188;SDS011;38162;45.926;13.608;2022-11-15T07:35:06;12.85;;;9.82;;
52188;SDS011;38162;45.926;13.608;2022-11-15T07:37:32;11.40;;;9.93;;
52188;SDS011;38162;45.926;13.608;2022-11-15T07:39:57;18.70;;;10.32;;
52188;SDS011;38162;45.926;13.608;2022-11-15T07:42:23;13.32;;;10.68;;
52188;SDS011;38162;45.926;13.608;2022-11-15T07:45:07;13.18;;;10.50;;
52188;SDS011;38162;45.926;13.608;2022-11-15T07:47:33;13.60;;;10.32;;
52188;SDS011;38162;45.926;13.608;2022-11-15T07:49:59;16.83;;;10.65;;
52188;SDS011;38162;45.926;13.608;2022-11-15T07:52:25;17.83;;;11.05;;
52188;SDS011;38162;45.926;13.608;2022-11-15T07:54:50;15.90;;;10.25;;
52188;SDS011;38162;45.926;13.608;2022-11-15T07:57:16;20.33;;;12.77;;
52188;SDS011;38162;45.926;13.608;2022-11-15T07:59:41;24.08;;;15.63;;
52188;SDS011;38162;45.926;13.608;2022-11-15T08:02:08;23.35;;;13.23;;
52188;SDS011;38162;45.926;13.608;2022-11-15T08:04:34;21.67;;;12.82;;
52188;SDS011;38162;45.926;13.608;2022-11-15T08:07:00;19.83;;;11.23;;
52188;SDS011;38162;45.926;13.608;2022-11-15T08:09:25;15.38;;;11.52;;
52188;SDS011;38162;45.926;13.608;2022-11-15T08:11:51;16.50;;;10.27;;
52188;SDS011;38162;45.926;13.608;2022-11-15T08:14:17;16.92;;;11.38;;
52188;SDS011;38162;45.926;13.608;2022-11-15T08:16:42;18.17;;;12.00;;
52188;SDS011;38162;45.926;13.608;2022-11-15T08:19:08;13.50;;;11.45;;
52188;SDS011;38162;45.926;13.608;2022-11-15T08:21:34;21.02;;;12.77;;
52188;SDS011;38162;45.926;13.608;2022-11-15T08:24:00;20.38;;;12.20;;
52188;SDS011;38162;45.926;13.608;2022-11-15T08:26:26;23.23;;;13.90;;
52188;SDS011;38162;45.926;13.608;2022-11-15T08:28:54;19.77;;;13.20;;
52188;SDS011;38162;45.926;13.608;2022-11-15T08:31:19;19.63;;;11.60;;
52188;SDS011;38162;45.926;13.608;2022-11-15T08:33:45;23.88;;;11.90;;
52188;SDS011;38162;45.926;13.608;2022-11-15T08:36:12;21.02;;;11.93;;
52188;SDS011;38162;45.926;13.608;2022-11-15T08:38:39;15.88;;;11.63;;
52188;SDS011;38162;45.926;13.608;2022-11-15T08:41:05;17.50;;;10.10;;
52188;SDS011;38162;45.926;13.608;2022-11-15T08:43:31;13.98;;;11.18;;
52188;SDS011;38162;45.926;13.608;2022-11-15T08:45:57;17.67;;;11.18;;
52188;SDS011;38162;45.926;13.608;2022-11-15T08:48:24;23.70;;;11.45;;
52188;SDS011;38162;45.926;13.608;2022-11-15T08:50:53;13.77;;;10.32;;
52188;SDS011;38162;45.926;13.608;2022-11-15T09:50:39;11.95;;;7.97;;
52188;SDS011;38162;45.926;13.608;2022-11-15T09:53:38;12.93;;;8.40;;
52188;SDS011;38162;45.926;13.608;2022-11-15T09:58:54;9.75;;;8.40;;
52188;SDS011;38162;45.926;13.608;2022-11-15T10:04:06;10.93;;;8.20;;
52188;SDS011;38162;45.926;13.608;2022-11-15T10:06:32;11.88;;;8.18;;
52188;SDS011;38162;45.926;13.608;2022-11-15T10:09:05;9.65;;;8.27;;
52188;SDS011;38162;45.926;13.608;2022-11-15T10:11:38;10.65;;;7.88;;
52188;SDS011;38162;45.926;13.608;2022-11-15T10:24:31;10.48;;;7.75;;
52188;SDS011;38162;45.926;13.608;2022-11-15T10:27:04;13.82;;;7.65;;
52188;SDS011;38162;45.926;13.608;2022-11-15T10:29:35;10.35;;;7.32;;
52188;SDS011;38162;45.926;13.608;2022-11-15T10:32:01;9.00;;;7.88;;
52188;SDS011;38162;45.926;13.608;2022-11-15T10:34:27;11.15;;;7.30;;
52188;SDS011;38162;45.926;13.608;2022-11-15T10:36:59;10.05;;;7.32;;
52188;SDS011;38162;45.926;13.608;2022-11-15T10:39:26;9.57;;;6.93;;
52188;SDS011;38162;45.926;13.608;2022-11-15T10:41:52;8.32;;;6.80;;
52188;SDS011;38162;45.926;13.608;2022-11-15T10:51:53;11.57;;;7.60;;
52188;SDS011;38162;45.926;13.608;2022-11-15T10:54:30;11.90;;;8.50;;
52188;SDS011;38162;45.926;13.608;2022-11-15T10:59:53;15.05;;;8.98;;
52188;SDS011;38162;45.926;13.608;2022-11-15T11:02:41;27.48;;;9.85;;
52188;SDS011;38162;45.926;13.608;2022-11-15T11:05:38;26.13;;;9.68;;
52188;SDS011;38162;45.926;13.608;2022-11-15T11:08:18;17.40;;;9.02;;
52188;SDS011;38162;45.926;13.608;2022-11-15T11:10:52;15.00;;;9.20;;
52188;SDS011;38162;45.926;13.608;2022-11-15T11:13:38;11.65;;;8.35;;
52188;SDS011;38162;45.926;13.608;2022-11-15T11:18:45;10.80;;;7.60;;
52188;SDS011;38162;45.926;13.608;2022-11-15T11:29:56;12.38;;;7.78;;
52188;SDS011;38162;45.926;13.608;2022-11-15T11:41:24;11.68;;;7.43;;
52188;SDS011;38162;45.926;13.608;2022-11-15T11:46:35;9.88;;;7.55;;
52188;SDS011;38162;45.926;13.608;2022-11-15T11:49:34;14.63;;;7.78;;
52188;SDS011;38162;45.926;13.608;2022-11-15T11:52:27;11.38;;;7.68;;
52188;SDS011;38162;45.926;13.608;2022-11-15T11:55:18;12.85;;;7.95;;
52188;SDS011;38162;45.926;13.608;2022-11-15T12:00:33;10.77;;;7.63;;
52188;SDS011;38162;45.926;13.608;2022-11-15T12:05:44;12.13;;;7.00;;
52188;SDS011;38162;45.926;13.608;2022-11-15T12:13:58;8.82;;;6.18;;
52188;SDS011;38162;45.926;13.608;2022-11-15T12:16:27;8.90;;;6.22;;
52188;SDS011;38162;45.926;13.608;2022-11-15T12:18:55;9.57;;;6.57;;
52188;SDS011;38162;45.926;13.608;2022-11-15T12:27:37;9.70;;;6.07;;
52188;SDS011;38162;45.926;13.608;2022-11-15T12:30:24;8.75;;;5.63;;
52188;SDS011;38162;45.926;13.608;2022-11-15T12:33:15;8.07;;;5.43;;
52188;SDS011;38162;45.926;13.608;2022-11-15T12:35:57;8.27;;;6.15;;
52188;SDS011;38162;45.926;13.608;2022-11-15T12:41:28;8.95;;;6.07;;
52188;SDS011;38162;45.926;13.608;2022-11-15T12:43:56;8.55;;;6.10;;
52188;SDS011;38162;45.926;13.608;2022-11-15T13:04:55;9.60;;;7.57;;
52188;SDS011;38162;45.926;13.608;2022-11-15T13:17:45;9.43;;;7.05;;
52188;SDS011;38162;45.926;13.608;2022-11-15T13:28:24;9.70;;;8.52;;
52188;SDS011;38162;45.926;13.608;2022-11-15T13:30:58;9.35;;;8.30;;
52188;SDS011;38162;45.926;13.608;2022-11-15T13:33:34;10.63;;;9.00;;
52188;SDS011;38162;45.926;13.608;2022-11-15T13:36:21;11.90;;;9.63;;
52188;SDS011;38162;45.926;13.608;2022-11-15T13:39:31;12.98;;;9.50;;
52188;SDS011;38162;45.926;13.608;2022-11-15T13:41:50;13.52;;;9.75;;
52188;SDS011;38162;45.926;13.608;2022-11-15T13:44:21;13.48;;;9.82;;
52188;SDS011;38162;45.926;13.608;2022-11-15T13:46:59;13.07;;;10.65;;
52188;SDS011;38162;45.926;13.608;2022-11-15T13:49:39;13.00;;;10.32;;
52188;SDS011;38162;45.926;13.608;2022-11-15T13:52:05;14.80;;;11.07;;
52188;SDS011;38162;45.926;13.608;2022-11-15T13:54:34;13.20;;;11.40;;
52188;SDS011;38162;45.926;13.608;2022-11-15T13:57:14;17.13;;;13.57;;
52188;SDS011;38162;45.926;13.608;2022-11-15T13:59:56;17.33;;;13.50;;
52188;SDS011;38162;45.926;13.608;2022-11-15T14:02:27;18.05;;;13.38;;
52188;SDS011;38162;45.926;13.608;2022-11-15T14:05:17;20.27;;;16.25;;
52188;SDS011;38162;45.926;13.608;2022-11-15T14:07:54;20.38;;;16.25;;
52188;SDS011;38162;45.926;13.608;2022-11-15T14:10:32;18.67;;;16.55;;
52188;SDS011;38162;45.926;13.608;2022-11-15T14:13:00;22.60;;;17.40;;
52188;SDS011;38162;45.926;13.608;2022-11-15T14:15:33;24.20;;;17.85;;
52188;SDS011;38162;45.926;13.608;2022-11-15T14:18:01;24.00;;;18.15;;
52188;SDS011;38162;45.926;13.608;2022-11-15T14:20:29;26.02;;;19.05;;
52188;SDS011;38162;45.926;13.608;2022-11-15T14:22:59;22.92;;;19.05;;
52188;SDS011;38162;45.926;13.608;2022-11-15T14:25:30;25.73;;;17.95;;
52188;SDS011;38162;45.926;13.608;2022-11-15T14:28:14;22.13;;;19.13;;
52188;SDS011;38162;45.926;13.608;2022-11-15T14:30:42;23.63;;;19.73;;
52188;SDS011;38162;45.926;13.608;2022-11-15T14:33:30;23.92;;;19.98;;
52188;SDS011;38162;45.926;13.608;2022-11-15T14:38:38;27.77;;;22.65;;
52188;SDS011;38162;45.926;13.608;2022-11-15T14:41:05;23.30;;;20.50;;
52188;SDS011;38162;45.926;13.608;2022-11-15T14:43:30;25.88;;;21.65;;
52188;SDS011;38162;45.926;13.608;2022-11-15T14:45:56;35.45;;;25.33;;
52188;SDS011;38162;45.926;13.608;2022-11-15T14:48:22;39.20;;;28.27;;
52188;SDS011;38162;45.926;13.608;2022-11-15T14:50:48;34.20;;;26.13;;
52188;SDS011;38162;45.926;13.608;2022-11-15T14:53:17;30.70;;;23.77;;
52188;SDS011;38162;45.926;13.608;2022-11-15T14:55:44;29.00;;;24.42;;
52188;SDS011;38162;45.926;13.608;2022-11-15T14:58:10;28.02;;;23.40;;
52188;SDS011;38162;45.926;13.608;2022-11-15T15:00:37;33.05;;;23.60;;
52188;SDS011;38162;45.926;13.608;2022-11-15T15:03:04;30.65;;;23.90;;
52188;SDS011;38162;45.926;13.608;2022-11-15T15:05:34;32.13;;;23.50;;
52188;SDS011;38162;45.926;13.608;2022-11-15T15:08:02;28.75;;;23.65;;
52188;SDS011;38162;45.926;13.608;2022-11-15T15:10:32;32.70;;;26.42;;
52188;SDS011;38162;45.926;13.608;2022-11-15T15:13:03;36.88;;;28.20;;
52188;SDS011;38162;45.926;13.608;2022-11-15T15:15:33;31.80;;;27.83;;
52188;SDS011;38162;45.926;13.608;2022-11-15T15:18:01;37.13;;;30.08;;
52188;SDS011;38162;45.926;13.608;2022-11-15T15:20:27;37.95;;;30.15;;
52188;SDS011;38162;45.926;13.608;2022-11-15T15:22:53;33.10;;;27.25;;
52188;SDS011;38162;45.926;13.608;2022-11-15T15:27:53;32.50;;;27.58;;
52188;SDS011;38162;45.926;13.608;2022-11-15T15:30:20;33.42;;;27.90;;
52188;SDS011;38162;45.926;13.608;2022-11-15T15:32:49;30.88;;;25.75;;
52188;SDS011;38162;45.926;13.608;2022-11-15T15:35:15;33.60;;;26.85;;
52188;SDS011;38162;45.926;13.608;2022-11-15T15:37:42;36.15;;;26.95;;
52188;SDS011;38162;45.926;13.608;2022-11-15T15:42:45;30.35;;;25.73;;
52188;SDS011;38162;45.926;13.608;2022-11-15T15:45:12;33.10;;;26.27;;
52188;SDS011;38162;45.926;13.608;2022-11-15T15:47:37;35.72;;;28.25;;
52188;SDS011;38162;45.926;13.608;2022-11-15T15:50:04;34.88;;;27.75;;
52188;SDS011;38162;45.926;13.608;2022-11-15T15:52:42;31.70;;;26.30;;
52188;SDS011;38162;45.926;13.608;2022-11-15T15:55:07;33.28;;;26.23;;
52188;SDS011;38162;45.926;13.608;2022-11-15T15:57:33;34.97;;;27.58;;
52188;SDS011;38162;45.926;13.608;2022-11-15T15:59:59;36.53;;;27.90;;
52188;SDS011;38162;45.926;13.608;2022-11-15T16:02:25;34.38;;;27.08;;
52188;SDS011;38162;45.926;13.608;2022-11-15T16:04:50;35.00;;;28.38;;
52188;SDS011;38162;45.926;13.608;2022-11-15T16:07:17;37.47;;;29.83;;
52188;SDS011;38162;45.926;13.608;2022-11-15T16:09:48;36.85;;;30.35;;
52188;SDS011;38162;45.926;13.608;2022-11-15T16:12:27;38.17;;;30.73;;
52188;SDS011;38162;45.926;13.608;2022-11-15T16:14:54;36.15;;;29.40;;
52188;SDS011;38162;45.926;13.608;2022-11-15T16:17:21;40.38;;;30.15;;
52188;SDS011;38162;45.926;13.608;2022-11-15T16:19:49;37.60;;;29.98;;
52188;SDS011;38162;45.926;13.608;2022-11-15T16:22:15;33.72;;;29.50;;
52188;SDS011;38162;45.926;13.608;2022-11-15T16:24:41;32.33;;;28.55;;
52188;SDS011;38162;45.926;13.608;2022-11-15T16:27:17;41.50;;;31.33;;
52188;SDS011;38162;45.926;13.608;2022-11-15T16:29:44;36.28;;;30.85;;
52188;SDS011;38162;45.926;13.608;2022-11-15T16:32:11;39.58;;;30.25;;
52188;SDS011;38162;45.926;13.608;2022-11-15T16:34:37;42.42;;;32.25;;
52188;SDS011;38162;45.926;13.608;2022-11-15T16:37:03;40.33;;;31.00;;
52188;SDS011;38162;45.926;13.608;2022-11-15T16:39:29;36.97;;;30.73;;
52188;SDS011;38162;45.926;13.608;2022-11-15T16:41:56;39.55;;;32.08;;
52188;SDS011;38162;45.926;13.608;2022-11-15T16:44:22;41.40;;;31.83;;
52188;SDS011;38162;45.926;13.608;2022-11-15T16:46:49;39.90;;;31.60;;
52188;SDS011;38162;45.926;13.608;2022-11-15T16:49:16;36.47;;;30.65;;
52188;SDS011;38162;45.926;13.608;2022-11-15T16:51:44;43.92;;;35.33;;
52188;SDS011;38162;45.926;13.608;2022-11-15T16:54:11;40.13;;;33.63;;
52188;SDS011;38162;45.926;13.608;2022-11-15T16:56:37;42.15;;;34.15;;
52188;SDS011;38162;45.926;13.608;2022-11-15T16:59:03;42.10;;;34.55;;
52188;SDS011;38162;45.926;13.608;2022-11-15T17:01:30;39.60;;;31.50;;
52188;SDS011;38162;45.926;13.608;2022-11-15T17:04:00;44.13;;;35.72;;
52188;SDS011;38162;45.926;13.608;2022-11-15T17:06:36;45.75;;;34.67;;
52188;SDS011;38162;45.926;13.608;2022-11-15T17:09:06;42.40;;;33.83;;
52188;SDS011;38162;45.926;13.608;2022-11-15T17:11:47;36.75;;;31.40;;
52188;SDS011;38162;45.926;13.608;2022-11-15T17:14:14;37.40;;;30.70;;
52188;SDS011;38162;45.926;13.608;2022-11-15T17:16:40;36.33;;;30.52;;
52188;SDS011;38162;45.926;13.608;2022-11-15T17:19:14;42.85;;;31.88;;
52188;SDS011;38162;45.926;13.608;2022-11-15T17:21:44;38.72;;;33.30;;
52188;SDS011;38162;45.926;13.608;2022-11-15T17:24:11;40.75;;;32.92;;
52188;SDS011;38162;45.926;13.608;2022-11-15T17:26:37;41.03;;;32.75;;
52188;SDS011;38162;45.926;13.608;2022-11-15T17:29:03;41.65;;;31.20;;
52188;SDS011;38162;45.926;13.608;2022-11-15T17:31:32;43.55;;;30.73;;
52188;SDS011;38162;45.926;13.608;2022-11-15T17:33:59;43.17;;;31.02;;
52188;SDS011;38162;45.926;13.608;2022-11-15T17:36:26;40.40;;;31.70;;
52188;SDS011;38162;45.926;13.608;2022-11-15T17:38:52;40.03;;;31.92;;
52188;SDS011;38162;45.926;13.608;2022-11-15T17:41:18;42.83;;;32.60;;
52188;SDS011;38162;45.926;13.608;2022-11-15T17:43:45;43.40;;;33.45;;
52188;SDS011;38162;45.926;13.608;2022-11-15T17:46:12;39.42;;;32.30;;
52188;SDS011;38162;45.926;13.608;2022-11-15T17:48:39;40.75;;;32.58;;
52188;SDS011;38162;45.926;13.608;2022-11-15T17:51:06;40.33;;;31.13;;
52188;SDS011;38162;45.926;13.608;2022-11-15T17:53:35;44.78;;;32.80;;
52188;SDS011;38162;45.926;13.608;2022-11-15T17:58:34;42.60;;;32.38;;
52188;SDS011;38162;45.926;13.608;2022-11-15T18:01:35;43.42;;;34.20;;
52188;SDS011;38162;45.926;13.608;2022-11-15T18:03:54;43.00;;;33.80;;
52188;SDS011;38162;45.926;13.608;2022-11-15T18:06:22;45.10;;;35.15;;
52188;SDS011;38162;45.926;13.608;2022-11-15T18:08:49;44.63;;;33.70;;
52188;SDS011;38162;45.926;13.608;2022-11-15T18:11:17;44.42;;;33.95;;
52188;SDS011;38162;45.926;13.608;2022-11-15T18:13:51;47.15;;;35.63;;
52188;SDS011;38162;45.926;13.608;2022-11-15T18:16:19;41.30;;;33.70;;
52188;SDS011;38162;45.926;13.608;2022-11-15T18:18:46;46.47;;;34.92;;
52188;SDS011;38162;45.926;13.608;2022-11-15T18:21:13;43.25;;;33.00;;
52188;SDS011;38162;45.926;13.608;2022-11-15T18:23:47;42.70;;;33.33;;
52188;SDS011;38162;45.926;13.608;2022-11-15T18:26:16;39.80;;;32.33;;
52188;SDS011;38162;45.926;13.608;2022-11-15T18:28:46;43.35;;;33.28;;
52188;SDS011;38162;45.926;13.608;2022-11-15T18:31:13;47.53;;;35.83;;
52188;SDS011;38162;45.926;13.608;2022-11-15T18:33:45;46.38;;;35.97;;
52188;SDS011;38162;45.926;13.608;2022-11-15T18:36:13;45.40;;;35.13;;
52188;SDS011;38162;45.926;13.608;2022-11-15T18:38:40;44.40;;;35.65;;
52188;SDS011;38162;45.926;13.608;2022-11-15T18:41:08;45.20;;;35.53;;
52188;SDS011;38162;45.926;13.608;2022-11-15T18:43:45;50.00;;;36.95;;
52188;SDS011;38162;45.926;13.608;2022-11-15T18:46:15;46.47;;;35.95;;
52188;SDS011;38162;45.926;13.608;2022-11-15T18:48:43;44.45;;;36.20;;
52188;SDS011;38162;45.926;13.608;2022-11-15T18:51:14;44.78;;;34.80;;
52188;SDS011;38162;45.926;13.608;2022-11-15T18:53:42;43.15;;;34.17;;
52188;SDS011;38162;45.926;13.608;2022-11-15T18:56:09;48.65;;;35.47;;
52188;SDS011;38162;45.926;13.608;2022-11-15T18:58:38;44.95;;;34.70;;
52188;SDS011;38162;45.926;13.608;2022-11-15T19:01:06;48.70;;;39.20;;
52188;SDS011;38162;45.926;13.608;2022-11-15T19:03:34;49.58;;;38.78;;
52188;SDS011;38162;45.926;13.608;2022-11-15T19:06:02;45.35;;;35.00;;
52188;SDS011;38162;45.926;13.608;2022-11-15T19:08:28;46.55;;;37.00;;
52188;SDS011;38162;45.926;13.608;2022-11-15T19:10:54;48.22;;;36.60;;
52188;SDS011;38162;45.926;13.608;2022-11-15T19:13:20;47.22;;;37.00;;
52188;SDS011;38162;45.926;13.608;2022-11-15T19:15:45;48.28;;;36.67;;
52188;SDS011;38162;45.926;13.608;2022-11-15T19:18:11;49.42;;;36.20;;
52188;SDS011;38162;45.926;13.608;2022-11-15T19:20:37;53.28;;;38.40;;
52188;SDS011;38162;45.926;13.608;2022-11-15T19:23:02;55.40;;;42.40;;
52188;SDS011;38162;45.926;13.608;2022-11-15T19:25:28;60.88;;;44.05;;
52188;SDS011;38162;45.926;13.608;2022-11-15T19:27:54;52.22;;;39.67;;
52188;SDS011;38162;45.926;13.608;2022-11-15T19:30:19;48.85;;;38.03;;
52188;SDS011;38162;45.926;13.608;2022-11-15T19:32:45;52.00;;;38.10;;
52188;SDS011;38162;45.926;13.608;2022-11-15T19:35:11;53.80;;;38.95;;
52188;SDS011;38162;45.926;13.608;2022-11-15T19:37:36;47.22;;;37.38;;
52188;SDS011;38162;45.926;13.608;2022-11-15T19:40:02;47.25;;;37.05;;
52188;SDS011;38162;45.926;13.608;2022-11-15T19:42:28;42.10;;;33.90;;
52188;SDS011;38162;45.926;13.608;2022-11-15T19:44:53;46.67;;;35.50;;
52188;SDS011;38162;45.926;13.608;2022-11-15T19:47:19;44.13;;;33.95;;
52188;SDS011;38162;45.926;13.608;2022-11-15T19:49:45;38.70;;;32.42;;
52188;SDS011;38162;45.926;13.608;2022-11-15T19:52:10;39.75;;;32.53;;
52188;SDS011;38162;45.926;13.608;2022-11-15T19:54:36;39.42;;;31.85;;
52188;SDS011;38162;45.926;13.608;2022-11-15T19:57:02;42.83;;;32.05;;
52188;SDS011;38162;45.926;13.608;2022-11-15T19:59:27;44.58;;;33.63;;
52188;SDS011;38162;45.926;13.608;2022-11-15T20:01:53;40.72;;;32.47;;
52188;SDS011;38162;45.926;13.608;2022-11-15T20:04:19;44.10;;;34.30;;
52188;SDS011;38162;45.926;13.608;2022-11-15T20:06:44;41.88;;;32.00;;
52188;SDS011;38162;45.926;13.608;2022-11-15T20:09:11;41.78;;;32.55;;
52188;SDS011;38162;45.926;13.608;2022-11-15T20:11:38;42.42;;;32.08;;
52188;SDS011;38162;45.926;13.608;2022-11-15T20:14:04;41.33;;;32.03;;
52188;SDS011;38162;45.926;13.608;2022-11-15T20:16:32;39.53;;;30.33;;
52188;SDS011;38162;45.926;13.608;2022-11-15T20:18:57;39.13;;;31.55;;
52188;SDS011;38162;45.926;13.608;2022-11-15T20:21:23;38.42;;;31.52;;
52188;SDS011;38162;45.926;13.608;2022-11-15T20:23:49;40.05;;;31.35;;
52188;SDS011;38162;45.926;13.608;2022-11-15T20:26:15;40.55;;;30.83;;
52188;SDS011;38162;45.926;13.608;2022-11-15T20:28:41;37.78;;;30.70;;
52188;SDS011;38162;45.926;13.608;2022-11-15T20:31:08;36.47;;;29.48;;
52188;SDS011;38162;45.926;13.608;2022-11-15T20:33:35;36.65;;;29.17;;
52188;SDS011;38162;45.926;13.608;2022-11-15T20:36:08;40.80;;;29.95;;
52188;SDS011;38162;45.926;13.608;2022-11-15T20:38:36;43.15;;;30.23;;
52188;SDS011;38162;45.926;13.608;2022-11-15T20:41:02;38.88;;;30.50;;
52188;SDS011;38162;45.926;13.608;2022-11-15T20:43:27;38.53;;;32.22;;
52188;SDS011;38162;45.926;13.608;2022-11-15T20:45:53;41.13;;;32.75;;
52188;SDS011;38162;45.926;13.608;2022-11-15T20:48:19;40.47;;;30.88;;
52188;SDS011;38162;45.926;13.608;2022-11-15T20:50:45;38.25;;;30.05;;
52188;SDS011;38162;45.926;13.608;2022-11-15T20:53:12;35.53;;;29.80;;
52188;SDS011;38162;45.926;13.608;2022-11-15T20:55:40;39.28;;;30.73;;
52188;SDS011;38162;45.926;13.608;2022-11-15T20:58:07;44.45;;;30.85;;
52188;SDS011;38162;45.926;13.608;2022-11-15T21:00:34;38.65;;;30.45;;
52188;SDS011;38162;45.926;13.608;2022-11-15T21:03:01;39.00;;;32.05;;
52188;SDS011;38162;45.926;13.608;2022-11-15T21:05:31;37.30;;;31.10;;
52188;SDS011;38162;45.926;13.608;2022-11-15T21:07:58;39.60;;;30.83;;
52188;SDS011;38162;45.926;13.608;2022-11-15T21:10:23;43.75;;;31.20;;
52188;SDS011;38162;45.926;13.608;2022-11-15T21:13:08;38.03;;;30.15;;
52188;SDS011;38162;45.926;13.608;2022-11-15T21:15:33;41.60;;;31.90;;
52188;SDS011;38162;45.926;13.608;2022-11-15T21:17:59;42.38;;;32.22;;
52188;SDS011;38162;45.926;13.608;2022-11-15T21:20:25;41.13;;;32.35;;
52188;SDS011;38162;45.926;13.608;2022-11-15T21:22:50;41.40;;;32.97;;
52188;SDS011;38162;45.926;13.608;2022-11-15T21:25:16;44.15;;;33.88;;
52188;SDS011;38162;45.926;13.608;2022-11-15T21:27:42;42.78;;;34.85;;
52188;SDS011;38162;45.926;13.608;2022-11-15T21:30:07;43.28;;;35.50;;
52188;SDS011;38162;45.926;13.608;2022-11-15T21:32:33;46.47;;;35.67;;
52188;SDS011;38162;45.926;13.608;2022-11-15T21:34:59;48.03;;;37.47;;
52188;SDS011;38162;45.926;13.608;2022-11-15T21:37:25;52.42;;;38.50;;
52188;SDS011;38162;45.926;13.608;2022-11-15T21:39:50;53.85;;;38.42;;
52188;SDS011;38162;45.926;13.608;2022-11-15T21:42:16;49.40;;;37.53;;
52188;SDS011;38162;45.926;13.608;2022-11-15T21:44:42;49.55;;;37.42;;
52188;SDS011;38162;45.926;13.608;2022-11-15T21:47:08;52.72;;;39.40;;
52188;SDS011;38162;45.926;13.608;2022-11-15T21:49:34;51.75;;;37.83;;
52188;SDS011;38162;45.926;13.608;2022-11-15T21:52:00;50.65;;;38.03;;
52188;SDS011;38162;45.926;13.608;2022-11-15T21:54:25;49.00;;;38.08;;
52188;SDS011;38162;45.926;13.608;2022-11-15T21:56:51;45.90;;;38.17;;
52188;SDS011;38162;45.926;13.608;2022-11-15T21:59:17;50.58;;;39.50;;
52188;SDS011;38162;45.926;13.608;2022-11-15T22:01:43;49.00;;;39.38;;
52188;SDS011;38162;45.926;13.608;2022-11-15T22:04:27;55.95;;;40.17;;
52188;SDS011;38162;45.926;13.608;2022-11-15T22:06:53;55.78;;;42.30;;
52188;SDS011;38162;45.926;13.608;2022-11-15T22:09:18;55.78;;;41.80;;
52188;SDS011;38162;45.926;13.608;2022-11-15T22:11:44;52.47;;;41.92;;
52188;SDS011;38162;45.926;13.608;2022-11-15T22:14:10;57.25;;;45.95;;
52188;SDS011;38162;45.926;13.608;2022-11-15T22:16:35;63.47;;;44.42;;
52188;SDS011;38162;45.926;13.608;2022-11-15T22:19:01;59.08;;;46.30;;
52188;SDS011;38162;45.926;13.608;2022-11-15T22:21:27;58.85;;;45.25;;
52188;SDS011;38162;45.926;13.608;2022-11-15T22:23:53;52.72;;;41.80;;
52188;SDS011;38162;45.926;13.608;2022-11-15T22:26:19;51.72;;;42.60;;
52188;SDS011;38162;45.926;13.608;2022-11-15T22:28:45;57.80;;;44.65;;
52188;SDS011;38162;45.926;13.608;2022-11-15T22:31:10;51.17;;;40.92;;
52188;SDS011;38162;45.926;13.608;2022-11-15T22:33:36;53.97;;;40.50;;
52188;SDS011;38162;45.926;13.608;2022-11-15T22:36:03;54.72;;;41.42;;
52188;SDS011;38162;45.926;13.608;2022-11-15T22:38:29;55.22;;;42.97;;
52188;SDS011;38162;45.926;13.608;2022-11-15T22:40:55;57.28;;;42.78;;
52188;SDS011;38162;45.926;13.608;2022-11-15T22:43:22;51.92;;;42.33;;
52188;SDS011;38162;45.926;13.608;2022-11-15T22:45:56;62.40;;;44.85;;
52188;SDS011;38162;45.926;13.608;2022-11-15T22:48:24;60.08;;;43.00;;
52188;SDS011;38162;45.926;13.608;2022-11-15T22:50:51;60.00;;;42.90;;
52188;SDS011;38162;45.926;13.608;2022-11-15T22:53:17;50.05;;;40.85;;
52188;SDS011;38162;45.926;13.608;2022-11-15T22:55:48;52.28;;;41.55;;
52188;SDS011;38162;45.926;13.608;2022-11-15T22:58:14;52.90;;;40.90;;
52188;SDS011;38162;45.926;13.608;2022-11-15T23:00:40;54.38;;;41.28;;
52188;SDS011;38162;45.926;13.608;2022-11-15T23:03:06;54.05;;;42.72;;
52188;SDS011;38162;45.926;13.608;2022-11-15T23:05:31;51.97;;;41.58;;
52188;SDS011;38162;45.926;13.608;2022-11-15T23:07:57;56.72;;;43.65;;
52188;SDS011;38162;45.926;13.608;2022-11-15T23:10:23;52.03;;;41.35;;
52188;SDS011;38162;45.926;13.608;2022-11-15T23:13:09;56.25;;;42.22;;
52188;SDS011;38162;45.926;13.608;2022-11-15T23:15:43;56.22;;;41.33;;
52188;SDS011;38162;45.926;13.608;2022-11-15T23:18:33;53.95;;;42.15;;
52188;SDS011;38162;45.926;13.608;2022-11-15T23:21:07;54.10;;;40.47;;
52188;SDS011;38162;45.926;13.608;2022-11-15T23:23:37;51.72;;;38.95;;
52188;SDS011;38162;45.926;13.608;2022-11-15T23:26:03;50.75;;;39.83;;
52188;SDS011;38162;45.926;13.608;2022-11-15T23:28:30;53.45;;;39.83;;
52188;SDS011;38162;45.926;13.608;2022-11-15T23:31:00;48.50;;;38.28;;
52188;SDS011;38162;45.926;13.608;2022-11-15T23:33:45;54.13;;;40.17;;
52188;SDS011;38162;45.926;13.608;2022-11-15T23:36:26;51.65;;;38.72;;
52188;SDS011;38162;45.926;13.608;2022-11-15T23:38:53;45.83;;;36.53;;
52188;SDS011;38162;45.926;13.608;2022-11-15T23:41:19;47.40;;;36.72;;
52188;SDS011;38162;45.926;13.608;2022-11-15T23:43:46;46.40;;;35.92;;
52188;SDS011;38162;45.926;13.608;2022-11-15T23:46:11;45.95;;;34.65;;
52188;SDS011;38162;45.926;13.608;2022-11-15T23:48:37;51.30;;;36.08;;
52188;SDS011;38162;45.926;13.608;2022-11-15T23:51:03;48.20;;;36.20;;
52188;SDS011;38162;45.926;13.608;2022-11-15T23:53:28;47.67;;;36.60;;
52188;SDS011;38162;45.926;13.608;2022-11-15T23:56:08;46.22;;;35.17;;
52188;SDS011;38162;45.926;13.608;2022-11-15T23:58:36;44.38;;;34.35;;
